createdAt,value
2019-02-04T00:04:47.916Z,96968.47
2019-02-04T00:07:37.727Z,96978.53
2019-02-04T00:10:21.507Z,96981.29
2019-02-04T00:13:11.240Z,96980.08
2019-02-04T00:16:21.491Z,96987.52
2019-02-04T00:19:11.243Z,96984.70
2019-02-04T00:21:53.596Z,96984.30
2019-02-04T00:24:43.323Z,96987.59
2019-02-04T00:27:25.341Z,96994.04
2019-02-04T00:30:16.025Z,96999.66
2019-02-04T00:32:58.489Z,96983.20
2019-02-04T00:38:46.268Z,96998.39
2019-02-04T00:41:36.186Z,96997.27
2019-02-04T00:44:25.896Z,96997.58
2019-02-04T00:47:34.467Z,97006.63
2019-02-04T00:50:17.254Z,96997.89
2019-02-04T00:53:07.197Z,97002.10
2019-02-04T00:55:56.961Z,97005.52
2019-02-04T00:58:46.752Z,96991.45
2019-02-04T01:01:36.566Z,97019.71
2019-02-04T01:04:39.892Z,97026.05
2019-02-04T01:07:22.530Z,97017.83
2019-02-04T01:13:09.013Z,97027.17
2019-02-04T01:15:58.792Z,97034.59
2019-02-04T01:18:48.609Z,97037.55
2019-02-04T01:21:38.408Z,97041.55
2019-02-04T01:24:28.207Z,97043.58
2019-02-04T01:27:17.974Z,97047.48
2019-02-04T01:30:01.916Z,97024.95
2019-02-04T01:32:51.692Z,97045.47
2019-02-04T01:35:41.442Z,97047.27
2019-02-04T01:38:31.254Z,97047.89
2019-02-04T01:41:21.012Z,97050.53
2019-02-04T01:44:10.786Z,97042.63
2019-02-04T01:47:00.548Z,97044.33
2019-02-04T01:49:50.282Z,97039.54
2019-02-04T01:52:32.956Z,97037.53
2019-02-04T01:55:22.756Z,97037.20
2019-02-04T01:58:12.541Z,97033.55
2019-02-04T02:01:02.446Z,97038.70
2019-02-04T02:03:52.154Z,97038.31
2019-02-04T02:06:24.609Z,97026.69
2019-02-04T02:09:33.447Z,97020.70
2019-02-04T02:12:23.228Z,97023.11
2019-02-04T02:15:12.971Z,97018.10
2019-02-04T02:18:02.759Z,97007.57
2019-02-04T02:20:52.570Z,96999.05
2019-02-04T02:23:42.430Z,96985.72
2019-02-04T02:26:32.201Z,97010.47
2019-02-04T02:29:14.943Z,97013.45
2019-02-04T02:31:56.928Z,97000.77
2019-02-04T02:34:59.464Z,97018.21
2019-02-04T02:37:42.314Z,97022.63
2019-02-04T02:43:48.682Z,97014.08
2019-02-04T02:46:38.486Z,97027.69
2019-02-04T02:49:47.378Z,97030.47
2019-02-04T02:58:36.281Z,97030.23
2019-02-04T03:01:25.997Z,97029.67
2019-02-04T03:04:15.723Z,97030.50
2019-02-04T03:06:58.500Z,97028.30
2019-02-04T03:09:48.448Z,97035.87
2019-02-04T03:12:57.282Z,97011.97
2019-02-04T03:15:40.017Z,97038.75
2019-02-04T03:18:29.779Z,97045.73
2019-02-04T03:21:19.527Z,97039.52
2019-02-04T03:24:09.487Z,97041.36
2019-02-04T03:26:59.247Z,97041.66
2019-02-04T03:29:41.496Z,97024.72
2019-02-04T03:32:31.278Z,97020.19
2019-02-04T03:35:21.086Z,97048.01
2019-02-04T03:38:29.908Z,97056.02
2019-02-04T03:41:19.655Z,97064.21
2019-02-04T03:44:09.425Z,97069.41
2019-02-04T03:46:59.210Z,97075.30
2019-02-04T03:49:42.835Z,97074.73
2019-02-04T03:52:32.603Z,97067.11
2019-02-04T03:55:22.410Z,97077.06
2019-02-04T03:58:04.694Z,97061.48
2019-02-04T04:00:54.436Z,97087.59
2019-02-04T04:03:25.067Z,97084.67
2019-02-04T04:06:14.781Z,97091.32
2019-02-04T04:08:56.762Z,97088.97
2019-02-04T04:11:46.557Z,97061.87
2019-02-04T04:14:36.338Z,97090.55
2019-02-04T04:17:26.206Z,97067.11
2019-02-04T04:20:16.470Z,97080.45
2019-02-04T04:22:58.940Z,97098.43
2019-02-04T04:25:48.680Z,97100.72
2019-02-04T04:28:38.431Z,97099.92
2019-02-04T04:31:40.550Z,97105.93
2019-02-04T04:34:22.661Z,97106.12
2019-02-04T04:37:12.392Z,97088.52
2019-02-04T04:39:55.948Z,97074.80
2019-02-04T04:42:45.663Z,97104.14
2019-02-04T04:45:28.379Z,97077.89
2019-02-04T04:48:26.245Z,97085.47
2019-02-04T04:51:02.264Z,97109.55
2019-02-04T04:53:52.388Z,97109.16
2019-02-04T04:56:36.745Z,97109.70
2019-02-04T04:59:26.504Z,97110.66
2019-02-04T05:02:09.425Z,97091.20
2019-02-04T05:04:59.156Z,97109.91
2019-02-04T05:07:41.934Z,97095.41
2019-02-04T05:10:31.638Z,97116.70
2019-02-04T05:13:15.460Z,97119.95
2019-02-04T05:16:05.148Z,97123.91
2019-02-04T05:18:47.288Z,97117.56
2019-02-04T05:21:37.051Z,97126.05
2019-02-04T05:24:19.829Z,97120.23
2019-02-04T05:27:09.958Z,97110.80
2019-02-04T05:29:59.900Z,97109.39
2019-02-04T05:32:44.272Z,97111.03
2019-02-04T05:35:34.073Z,97102.03
2019-02-04T05:38:23.813Z,97089.02
2019-02-04T05:41:13.676Z,97114.47
2019-02-04T05:44:03.461Z,97091.69
2019-02-04T05:46:53.312Z,97112.73
2019-02-04T05:50:02.304Z,97119.95
2019-02-04T05:52:52.146Z,97110.63
2019-02-04T05:55:36.582Z,97119.58
2019-02-04T05:58:26.358Z,97119.52
2019-02-04T06:01:16.096Z,97123.61
2019-02-04T06:04:06.003Z,97131.27
2019-02-04T06:06:55.760Z,97121.87
2019-02-04T06:09:45.540Z,97104.09
2019-02-04T06:12:35.295Z,97127.19
2019-02-04T06:15:25.168Z,97124.04
2019-02-04T06:18:34.174Z,97118.90
2019-02-04T06:21:43.036Z,97114.89
2019-02-04T06:24:32.778Z,97115.52
2019-02-04T06:27:22.523Z,97097.37
2019-02-04T06:30:12.636Z,97113.63
2019-02-04T06:32:56.684Z,97109.03
2019-02-04T06:35:38.738Z,97085.23
2019-02-04T06:38:41.156Z,97095.78
2019-02-04T06:41:23.824Z,97112.64
2019-02-04T06:44:13.562Z,97086.27
2019-02-04T06:46:56.426Z,97104.02
2019-02-04T06:49:46.138Z,97110.50
2019-02-04T06:52:28.528Z,97113.34
2019-02-04T06:55:37.583Z,97118.36
2019-02-04T06:58:21.272Z,97107.98
2019-02-04T07:01:11.013Z,97079.83
2019-02-04T07:04:00.757Z,97109.59
2019-02-04T07:06:44.703Z,97103.17
2019-02-04T07:09:34.486Z,97110.38
2019-02-04T07:12:24.259Z,97115.52
2019-02-04T07:15:06.444Z,97100.09
2019-02-04T07:18:01.463Z,97132.28
2019-02-04T07:20:41.332Z,97133.07
2019-02-04T07:26:34.718Z,97136.28
2019-02-04T07:29:16.727Z,97140.32
2019-02-04T07:32:06.900Z,97142.55
2019-02-04T07:34:56.728Z,97135.94
2019-02-04T07:37:43.686Z,97110.98
2019-02-04T07:40:34.203Z,97132.79
2019-02-04T07:43:23.987Z,97127.47
2019-02-04T07:46:13.699Z,97117.84
2019-02-04T07:49:04.036Z,97104.86
2019-02-04T07:51:53.779Z,97098.41
2019-02-04T07:54:36.049Z,97096.06
2019-02-04T07:57:25.776Z,97095.52
2019-02-04T08:00:15.425Z,97074.97
2019-02-04T08:03:06.883Z,97098.13
2019-02-04T08:05:49.511Z,97079.34
2019-02-04T08:08:39.260Z,97095.56
2019-02-04T08:11:21.225Z,97087.83
2019-02-04T08:14:10.960Z,97067.90
2019-02-04T08:16:53.861Z,97046.05
2019-02-04T08:19:47.010Z,97081.07
2019-02-04T08:22:28.205Z,97089.33
2019-02-04T08:25:17.911Z,97054.27
2019-02-04T08:28:00.749Z,97086.86
2019-02-04T08:30:50.487Z,97094.27
2019-02-04T08:33:32.941Z,97084.17
2019-02-04T08:39:18.023Z,97108.89
2019-02-04T08:42:08.081Z,97112.63
2019-02-04T08:44:51.092Z,97114.23
2019-02-04T08:47:40.900Z,97103.73
2019-02-04T08:50:30.671Z,97111.67
2019-02-04T08:53:20.459Z,97108.19
2019-02-04T08:56:10.173Z,97115.37
2019-02-04T08:58:59.863Z,97122.74
2019-02-04T09:01:49.589Z,97104.87
2019-02-04T09:04:31.862Z,97122.00
2019-02-04T09:07:21.584Z,97126.03
2019-02-04T09:10:04.067Z,97121.89
2019-02-04T09:12:53.816Z,97119.79
2019-02-04T09:15:36.629Z,97100.70
2019-02-04T09:18:26.373Z,97092.73
2019-02-04T09:21:10.801Z,97124.30
2019-02-04T09:24:00.523Z,97118.32
2019-02-04T09:26:43.280Z,97117.52
2019-02-04T09:29:32.988Z,97121.18
2019-02-04T09:32:15.739Z,97122.25
2019-02-04T09:35:06.024Z,97124.22
2019-02-04T09:37:48.863Z,97119.90
2019-02-04T09:40:41.206Z,97109.48
2019-02-04T09:43:24.127Z,97098.71
2019-02-04T09:46:13.872Z,97096.07
2019-02-04T09:48:56.202Z,97129.20
2019-02-04T09:51:45.942Z,97126.79
2019-02-04T09:54:30.290Z,97111.09
2019-02-04T09:57:20.018Z,97121.84
2019-02-04T10:00:02.358Z,97118.59
2019-02-04T10:02:52.049Z,97108.77
2019-02-04T10:05:34.165Z,97105.80
2019-02-04T10:08:24.187Z,97121.80
2019-02-04T10:11:06.968Z,97107.59
2019-02-04T10:13:56.718Z,97101.70
2019-02-04T10:16:46.446Z,97111.89
2019-02-04T10:19:29.304Z,97106.86
2019-02-04T10:22:19.144Z,97099.61
2019-02-04T10:25:09.871Z,97090.11
2019-02-04T10:27:59.556Z,97093.34
2019-02-04T10:30:42.507Z,97094.77
2019-02-04T10:33:32.331Z,97091.78
2019-02-04T10:36:22.121Z,97101.05
2019-02-04T10:39:30.980Z,97107.48
2019-02-04T10:42:13.372Z,97116.78
2019-02-04T10:45:22.231Z,97099.83
2019-02-04T10:48:05.225Z,97093.88
2019-02-04T10:50:54.971Z,97113.77
2019-02-04T10:53:44.838Z,97121.13
2019-02-04T10:56:28.770Z,97113.23
2019-02-04T10:59:18.646Z,97110.69
2019-02-04T11:02:11.295Z,97097.41
2019-02-04T11:04:52.658Z,97092.80
2019-02-04T11:07:42.334Z,97081.75
2019-02-04T11:10:28.685Z,97075.31
2019-02-04T11:13:18.817Z,97073.58
2019-02-04T11:16:01.683Z,97079.56
2019-02-04T11:18:51.412Z,97075.31
2019-02-04T11:21:33.969Z,97060.77
2019-02-04T11:24:23.681Z,97056.38
2019-02-04T11:27:05.888Z,97049.90
2019-02-04T11:29:55.621Z,97052.58
2019-02-04T11:32:37.816Z,97054.25
2019-02-04T11:35:27.908Z,97052.36
2019-02-04T11:38:09.929Z,97043.55
2019-02-04T11:40:59.696Z,97044.73
2019-02-04T11:43:42.262Z,97044.92
2019-02-04T11:46:32.195Z,97042.19
2019-02-04T11:49:14.351Z,97042.38
2019-02-04T11:52:04.089Z,97033.36
2019-02-04T11:54:46.941Z,97023.29
2019-02-04T11:57:36.653Z,97028.86
2019-02-04T12:00:20.013Z,97030.85
2019-02-04T12:06:26.073Z,97028.02
2019-02-04T12:09:15.813Z,97029.77
2019-02-04T12:11:58.782Z,97023.72
2019-02-04T12:14:48.566Z,97019.64
2019-02-04T12:17:38.366Z,97019.19
2019-02-04T12:20:47.216Z,97016.26
2019-02-04T12:23:36.995Z,97007.70
2019-02-04T12:26:26.732Z,97004.07
2019-02-04T12:29:16.417Z,96993.44
2019-02-04T12:32:06.186Z,96987.33
2019-02-04T12:34:55.979Z,96976.39
2019-02-04T12:37:37.811Z,96959.52
2019-02-04T12:40:27.561Z,96981.80
2019-02-04T12:43:10.367Z,96986.02
2019-02-04T12:46:00.105Z,96985.84
2019-02-04T12:48:42.472Z,96972.94
2019-02-04T12:54:33.262Z,96961.87
2019-02-04T12:57:22.971Z,96955.38
2019-02-04T13:00:15.707Z,96954.67
2019-02-04T13:02:58.351Z,96957.64
2019-02-04T13:05:50.694Z,96952.55
2019-02-04T13:08:40.467Z,96951.34
2019-02-04T13:11:30.342Z,96951.22
2019-02-04T13:14:20.097Z,96942.08
2019-02-04T13:17:09.869Z,96943.30
2019-02-04T13:19:59.684Z,96940.00
2019-02-04T13:22:49.434Z,96934.97
2019-02-04T13:25:33.549Z,96925.03
2019-02-04T13:28:23.765Z,96906.80
2019-02-04T13:31:13.550Z,96926.83
2019-02-04T13:34:03.870Z,96925.28
2019-02-04T13:36:53.597Z,96920.38
2019-02-04T13:39:43.319Z,96916.00
2019-02-04T13:42:25.423Z,96912.19
2019-02-04T13:48:30.133Z,96906.13
2019-02-04T13:51:19.898Z,96869.99
2019-02-04T13:57:12.837Z,96898.80
2019-02-04T13:59:56.933Z,96905.90
2019-02-04T14:02:59.833Z,96908.06
2019-02-04T14:05:41.796Z,96912.66
2019-02-04T14:08:31.515Z,96903.35
2019-02-04T14:11:13.748Z,96906.56
2019-02-04T14:14:03.485Z,96902.21
2019-02-04T14:16:45.731Z,96903.37
2019-02-04T14:19:35.462Z,96904.77
2019-02-04T14:22:19.243Z,96897.09
2019-02-04T14:25:09.580Z,96894.77
2019-02-04T14:27:59.332Z,96892.16
2019-02-04T14:31:01.952Z,96894.36
2019-02-04T14:33:43.918Z,96896.73
2019-02-04T14:36:33.674Z,96884.35
2019-02-04T14:39:16.289Z,96892.89
2019-02-04T14:45:43.350Z,96894.85
2019-02-04T14:48:46.186Z,96883.91
2019-02-04T14:52:00.576Z,96857.67
2019-02-04T14:55:28.540Z,96874.41
2019-02-04T14:58:32.828Z,96880.75
2019-02-04T15:01:45.461Z,96876.30
2019-02-04T15:04:57.748Z,96869.59
2019-02-04T15:08:32.980Z,96881.53
2019-02-04T15:11:32.190Z,96885.85
2019-02-04T15:14:34.725Z,96882.04
2019-02-04T15:17:36.594Z,96882.08
2019-02-04T15:21:04.444Z,96894.80
2019-02-04T15:24:09.074Z,96891.35
2019-02-04T15:27:37.007Z,96898.84
2019-02-04T15:30:28.192Z,96905.88
2019-02-04T15:33:40.282Z,96914.13
2019-02-04T15:37:08.207Z,96898.47
2019-02-04T15:40:29.500Z,96905.73
2019-02-04T15:43:44.508Z,96912.06
2019-02-04T15:46:39.743Z,96923.86
2019-02-04T15:50:02.475Z,96920.95
2019-02-04T15:52:52.168Z,96925.66
2019-02-04T15:55:41.894Z,96924.44
2019-02-04T15:58:24.339Z,96930.80
2019-02-04T16:01:14.111Z,96926.84
2019-02-04T16:07:23.798Z,96926.34
2019-02-04T16:10:15.261Z,96937.50
2019-02-04T16:13:05.057Z,96932.49
2019-02-04T16:15:54.796Z,96929.22
2019-02-04T16:18:56.429Z,96931.47
2019-02-04T16:21:39.566Z,96925.69
2019-02-04T16:24:29.273Z,96923.36
2019-02-04T16:27:11.907Z,96922.80
2019-02-04T16:33:03.352Z,96932.06
2019-02-04T16:35:53.053Z,96933.53
2019-02-04T16:38:35.631Z,96940.14
2019-02-04T16:41:25.375Z,96922.73
2019-02-04T16:44:07.937Z,96943.87
2019-02-04T16:46:57.671Z,96949.43
2019-02-04T16:49:39.856Z,96951.11
2019-02-04T16:52:29.571Z,96950.56
2019-02-04T16:55:11.564Z,96951.77
2019-02-04T16:58:01.250Z,96950.73
2019-02-04T17:00:45.625Z,96947.80
2019-02-04T17:03:35.346Z,96955.52
2019-02-04T17:06:17.093Z,96964.95
2019-02-04T17:09:02.190Z,96974.11
2019-02-04T17:11:50.836Z,96949.63
2019-02-04T17:14:34.578Z,96979.24
2019-02-04T17:17:24.316Z,96977.28
2019-02-04T17:20:08.108Z,96982.90
2019-02-04T17:26:01.164Z,96957.81
2019-02-04T17:28:44.035Z,96976.58
2019-02-04T17:31:33.815Z,96981.30
2019-02-04T17:34:23.542Z,96984.88
2019-02-04T17:37:32.502Z,96987.92
2019-02-04T17:40:23.026Z,96970.67
2019-02-04T17:43:12.812Z,96995.21
2019-02-04T17:49:05.888Z,97001.44
2019-02-04T17:51:55.631Z,96999.40
2019-02-04T17:57:43.353Z,97008.92
2019-02-04T18:03:39.357Z,97006.89
2019-02-04T18:09:30.286Z,97002.29
2019-02-04T18:12:20.031Z,96997.95
2019-02-04T18:15:02.172Z,97004.66
2019-02-04T18:17:52.207Z,96995.29
2019-02-04T18:20:34.619Z,96995.66
2019-02-04T18:23:24.607Z,97000.95
2019-02-04T18:26:07.406Z,96995.39
2019-02-04T18:28:57.507Z,96997.89
2019-02-04T18:31:40.353Z,96992.48
2019-02-04T18:34:30.076Z,96982.19
2019-02-04T18:37:14.288Z,96971.58
2019-02-04T18:40:04.096Z,96997.83
2019-02-04T18:42:46.517Z,97000.20
2019-02-04T18:45:36.348Z,97002.50
2019-02-04T18:48:18.561Z,97005.78
2019-02-04T18:51:08.567Z,96998.48
2019-02-04T18:53:57.734Z,96981.77
2019-02-04T18:56:43.267Z,96989.17
2019-02-04T18:59:25.862Z,96985.78
2019-02-04T19:02:15.851Z,96982.36
2019-02-04T19:04:57.893Z,96983.88
2019-02-04T19:07:47.594Z,96982.36
2019-02-04T19:10:29.540Z,96995.16
2019-02-04T19:13:19.263Z,96989.59
2019-02-04T19:16:01.576Z,96994.84
2019-02-04T19:18:51.322Z,96995.20
2019-02-04T19:21:33.998Z,96994.01
2019-02-04T19:24:23.730Z,97000.53
2019-02-04T19:27:05.988Z,97005.02
2019-02-04T19:29:55.724Z,97003.88
2019-02-04T19:32:38.556Z,97007.46
2019-02-04T19:35:28.250Z,97005.44
2019-02-04T19:38:11.013Z,97004.36
2019-02-04T19:41:00.743Z,96996.69
2019-02-04T19:43:43.298Z,97003.45
2019-02-04T19:46:33.043Z,96998.02
2019-02-04T19:49:16.683Z,97000.44
2019-02-04T19:52:06.631Z,97003.81
2019-02-04T19:54:48.914Z,97009.80
2019-02-04T19:57:38.645Z,97009.89
2019-02-04T20:00:22.209Z,97008.28
2019-02-04T20:03:12.136Z,97007.25
2019-02-04T20:05:54.250Z,97013.80
2019-02-04T20:08:44.114Z,96990.63
2019-02-04T20:11:26.456Z,97017.63
2019-02-04T20:14:16.217Z,97014.38
2019-02-04T20:16:59.021Z,97015.56
2019-02-04T20:19:48.787Z,97011.55
2019-02-04T20:22:33.331Z,97010.27
2019-02-04T20:25:27.925Z,97015.63
2019-02-04T20:28:10.226Z,97013.40
2019-02-04T20:30:59.993Z,97012.11
2019-02-04T20:33:42.445Z,96992.31
2019-02-04T20:36:32.260Z,97007.20
2019-02-04T20:39:22.072Z,97008.75
2019-02-04T20:42:07.611Z,97009.37
2019-02-04T20:44:57.432Z,96987.94
2019-02-04T20:47:47.486Z,97015.06
2019-02-04T20:50:38.808Z,97010.75
2019-02-04T20:53:28.599Z,97013.66
2019-02-04T20:56:37.611Z,97009.80
2019-02-04T20:59:21.747Z,97004.39
2019-02-04T21:02:11.542Z,97002.41
2019-02-04T21:05:01.321Z,96978.52
2019-02-04T21:07:51.071Z,97003.74
2019-02-04T21:10:40.887Z,96994.95
2019-02-04T21:13:30.647Z,97007.63
2019-02-04T21:16:20.381Z,97006.59
2019-02-04T21:19:10.110Z,96985.16
2019-02-04T21:21:52.687Z,97014.58
2019-02-04T21:27:44.141Z,97018.64
2019-02-04T21:30:39.342Z,97005.46
2019-02-04T21:33:21.708Z,96986.80
2019-02-04T21:36:11.810Z,97002.44
2019-02-04T21:38:54.292Z,97007.88
2019-02-04T21:41:44.047Z,97010.63
2019-02-04T21:44:26.516Z,97009.74
2019-02-04T21:47:16.280Z,97002.52
2019-02-04T21:53:12.341Z,96998.58
2019-02-04T21:55:54.334Z,96994.22
2019-02-04T21:58:44.220Z,96994.99
2019-02-04T22:01:33.982Z,96997.07
2019-02-04T22:04:16.843Z,96991.73
2019-02-04T22:07:25.748Z,96989.63
2019-02-04T22:10:11.146Z,96990.42
2019-02-04T22:13:20.014Z,96965.03
2019-02-04T22:16:18.990Z,96993.02
2019-02-04T22:22:11.903Z,96996.90
2019-02-04T22:24:54.091Z,96996.55
2019-02-04T22:27:44.275Z,96990.39
2019-02-04T22:30:34.061Z,97007.11
2019-02-04T22:33:23.813Z,96985.03
2019-02-04T22:36:13.718Z,96976.80
2019-02-04T22:39:03.588Z,97008.72
2019-02-04T22:41:53.436Z,97012.07
2019-02-04T22:44:43.355Z,97006.71
2019-02-04T22:47:27.605Z,97017.19
2019-02-04T22:50:19.872Z,97018.05
2019-02-04T22:53:09.628Z,97028.17
2019-02-04T22:55:59.491Z,97027.23
2019-02-04T22:58:52.151Z,97025.98
2019-02-04T23:01:38.368Z,97029.42
2019-02-04T23:04:40.780Z,97025.09
2019-02-04T23:07:23.481Z,97022.88
2019-02-04T23:10:13.280Z,97018.19
2019-02-04T23:12:55.213Z,97022.28
2019-02-04T23:15:44.910Z,97024.38
2019-02-04T23:18:28.814Z,97022.37
2019-02-04T23:21:18.533Z,97028.52
2019-02-04T23:24:00.527Z,97023.97
2019-02-04T23:26:50.240Z,97023.61
2019-02-04T23:29:33.070Z,97024.75
2019-02-04T23:32:22.864Z,97021.69
2019-02-04T23:35:05.907Z,97014.47
2019-02-04T23:37:55.712Z,97019.84
2019-02-04T23:40:37.756Z,97016.80
2019-02-04T23:43:27.559Z,97006.22
2019-02-04T23:46:12.146Z,97010.49
2019-02-04T23:49:01.926Z,97011.39
2019-02-04T23:51:47.340Z,97013.13
2019-02-04T23:54:36.214Z,97011.34
2019-02-04T23:57:19.853Z,97015.61
